sensor_id;sensor_type;location;lat;lon;timestamp;P1;durP1;ratioP1;P2;durP2;ratioP2
20776;SDS011;10548;47.504;8.248;2024-03-22T00:00:48;5.80;;;3.17;;
20776;SDS011;10548;47.504;8.248;2024-03-22T00:03:15;5.97;;;3.23;;
20776;SDS011;10548;47.504;8.248;2024-03-22T00:05:41;6.20;;;2.97;;
20776;SDS011;10548;47.504;8.248;2024-03-22T00:08:08;7.97;;;3.00;;
20776;SDS011;10548;47.504;8.248;2024-03-22T00:10:34;6.77;;;3.10;;
20776;SDS011;10548;47.504;8.248;2024-03-22T00:13:01;4.63;;;3.27;;
20776;SDS011;10548;47.504;8.248;2024-03-22T00:15:27;5.83;;;2.93;;
20776;SDS011;10548;47.504;8.248;2024-03-22T00:17:54;4.80;;;2.70;;
20776;SDS011;10548;47.504;8.248;2024-03-22T00:20:20;5.67;;;2.50;;
20776;SDS011;10548;47.504;8.248;2024-03-22T00:22:47;4.60;;;2.63;;
20776;SDS011;10548;47.504;8.248;2024-03-22T00:25:13;7.23;;;2.77;;
20776;SDS011;10548;47.504;8.248;2024-03-22T00:27:40;6.63;;;3.00;;
20776;SDS011;10548;47.504;8.248;2024-03-22T00:30:06;5.77;;;2.73;;
20776;SDS011;10548;47.504;8.248;2024-03-22T00:32:33;5.80;;;2.80;;
20776;SDS011;10548;47.504;8.248;2024-03-22T00:34:59;5.33;;;2.67;;
20776;SDS011;10548;47.504;8.248;2024-03-22T00:37:26;5.83;;;2.90;;
20776;SDS011;10548;47.504;8.248;2024-03-22T00:39:53;5.27;;;3.20;;
20776;SDS011;10548;47.504;8.248;2024-03-22T00:42:19;6.90;;;3.30;;
20776;SDS011;10548;47.504;8.248;2024-03-22T00:44:46;8.43;;;3.60;;
20776;SDS011;10548;47.504;8.248;2024-03-22T00:47:12;7.50;;;3.50;;
20776;SDS011;10548;47.504;8.248;2024-03-22T00:49:39;4.87;;;3.00;;
20776;SDS011;10548;47.504;8.248;2024-03-22T00:52:05;5.60;;;3.10;;
20776;SDS011;10548;47.504;8.248;2024-03-22T00:54:32;5.97;;;3.27;;
20776;SDS011;10548;47.504;8.248;2024-03-22T00:56:58;6.63;;;3.30;;
20776;SDS011;10548;47.504;8.248;2024-03-22T00:59:24;6.67;;;3.40;;
20776;SDS011;10548;47.504;8.248;2024-03-22T01:01:51;6.80;;;3.60;;
20776;SDS011;10548;47.504;8.248;2024-03-22T01:04:18;5.87;;;3.33;;
20776;SDS011;10548;47.504;8.248;2024-03-22T01:06:45;14.17;;;2.90;;
20776;SDS011;10548;47.504;8.248;2024-03-22T01:09:11;9.00;;;2.93;;
20776;SDS011;10548;47.504;8.248;2024-03-22T01:11:38;7.47;;;3.03;;
20776;SDS011;10548;47.504;8.248;2024-03-22T01:14:05;2.80;;;2.33;;
20776;SDS011;10548;47.504;8.248;2024-03-22T01:16:32;7.77;;;2.77;;
20776;SDS011;10548;47.504;8.248;2024-03-22T01:18:58;8.20;;;3.10;;
20776;SDS011;10548;47.504;8.248;2024-03-22T01:21:24;5.10;;;2.70;;
20776;SDS011;10548;47.504;8.248;2024-03-22T01:23:51;7.90;;;2.73;;
20776;SDS011;10548;47.504;8.248;2024-03-22T01:26:18;6.07;;;3.00;;
20776;SDS011;10548;47.504;8.248;2024-03-22T01:28:45;6.33;;;2.70;;
20776;SDS011;10548;47.504;8.248;2024-03-22T01:31:13;6.10;;;2.83;;
20776;SDS011;10548;47.504;8.248;2024-03-22T01:33:39;6.70;;;3.17;;
20776;SDS011;10548;47.504;8.248;2024-03-22T01:36:06;8.10;;;2.93;;
20776;SDS011;10548;47.504;8.248;2024-03-22T01:38:32;7.50;;;3.70;;
20776;SDS011;10548;47.504;8.248;2024-03-22T01:40:59;7.07;;;3.37;;
20776;SDS011;10548;47.504;8.248;2024-03-22T01:43:25;8.13;;;3.63;;
20776;SDS011;10548;47.504;8.248;2024-03-22T01:45:51;5.97;;;3.00;;
20776;SDS011;10548;47.504;8.248;2024-03-22T01:48:18;7.63;;;3.37;;
20776;SDS011;10548;47.504;8.248;2024-03-22T01:50:44;7.17;;;3.80;;
20776;SDS011;10548;47.504;8.248;2024-03-22T01:53:11;7.27;;;3.80;;
20776;SDS011;10548;47.504;8.248;2024-03-22T01:55:38;5.30;;;3.47;;
20776;SDS011;10548;47.504;8.248;2024-03-22T01:58:04;7.33;;;3.47;;
20776;SDS011;10548;47.504;8.248;2024-03-22T02:00:31;5.83;;;3.07;;
20776;SDS011;10548;47.504;8.248;2024-03-22T02:02:58;4.80;;;3.27;;
20776;SDS011;10548;47.504;8.248;2024-03-22T02:05:25;11.33;;;3.57;;
20776;SDS011;10548;47.504;8.248;2024-03-22T02:07:51;8.80;;;3.93;;
20776;SDS011;10548;47.504;8.248;2024-03-22T02:10:18;6.83;;;3.67;;
20776;SDS011;10548;47.504;8.248;2024-03-22T02:12:45;6.27;;;4.27;;
20776;SDS011;10548;47.504;8.248;2024-03-22T02:15:11;12.00;;;4.13;;
20776;SDS011;10548;47.504;8.248;2024-03-22T02:17:37;4.93;;;2.83;;
20776;SDS011;10548;47.504;8.248;2024-03-22T02:20:04;9.47;;;3.30;;
20776;SDS011;10548;47.504;8.248;2024-03-22T02:22:31;6.43;;;3.77;;
20776;SDS011;10548;47.504;8.248;2024-03-22T02:24:58;5.77;;;3.23;;
20776;SDS011;10548;47.504;8.248;2024-03-22T02:27:24;8.67;;;3.87;;
20776;SDS011;10548;47.504;8.248;2024-03-22T02:29:51;9.63;;;3.63;;
20776;SDS011;10548;47.504;8.248;2024-03-22T02:32:18;5.97;;;4.27;;
20776;SDS011;10548;47.504;8.248;2024-03-22T02:34:44;5.87;;;4.07;;
20776;SDS011;10548;47.504;8.248;2024-03-22T02:37:10;5.50;;;3.87;;
20776;SDS011;10548;47.504;8.248;2024-03-22T02:39:37;7.63;;;4.57;;
20776;SDS011;10548;47.504;8.248;2024-03-22T02:42:04;14.00;;;5.03;;
20776;SDS011;10548;47.504;8.248;2024-03-22T02:44:30;6.23;;;3.97;;
20776;SDS011;10548;47.504;8.248;2024-03-22T02:46:57;7.33;;;4.50;;
20776;SDS011;10548;47.504;8.248;2024-03-22T02:49:24;4.60;;;4.10;;
20776;SDS011;10548;47.504;8.248;2024-03-22T02:51:51;6.80;;;4.33;;
20776;SDS011;10548;47.504;8.248;2024-03-22T02:54:17;12.67;;;4.60;;
20776;SDS011;10548;47.504;8.248;2024-03-22T02:56:44;11.37;;;4.70;;
20776;SDS011;10548;47.504;8.248;2024-03-22T02:59:10;8.57;;;4.17;;
20776;SDS011;10548;47.504;8.248;2024-03-22T03:01:37;6.77;;;5.20;;
20776;SDS011;10548;47.504;8.248;2024-03-22T03:04:03;8.37;;;4.70;;
20776;SDS011;10548;47.504;8.248;2024-03-22T03:06:30;10.00;;;5.10;;
20776;SDS011;10548;47.504;8.248;2024-03-22T03:08:56;14.83;;;4.97;;
20776;SDS011;10548;47.504;8.248;2024-03-22T03:11:23;6.47;;;4.50;;
20776;SDS011;10548;47.504;8.248;2024-03-22T03:13:49;10.23;;;4.60;;
20776;SDS011;10548;47.504;8.248;2024-03-22T03:16:16;9.83;;;5.23;;
20776;SDS011;10548;47.504;8.248;2024-03-22T03:18:42;10.13;;;5.00;;
20776;SDS011;10548;47.504;8.248;2024-03-22T03:21:09;8.60;;;4.93;;
20776;SDS011;10548;47.504;8.248;2024-03-22T03:23:35;9.67;;;5.03;;
20776;SDS011;10548;47.504;8.248;2024-03-22T03:26:02;7.13;;;4.93;;
20776;SDS011;10548;47.504;8.248;2024-03-22T03:28:28;7.83;;;5.23;;
20776;SDS011;10548;47.504;8.248;2024-03-22T03:30:56;11.83;;;4.90;;
20776;SDS011;10548;47.504;8.248;2024-03-22T03:33:22;10.93;;;5.07;;
20776;SDS011;10548;47.504;8.248;2024-03-22T03:35:49;9.17;;;5.13;;
20776;SDS011;10548;47.504;8.248;2024-03-22T03:38:15;8.60;;;4.93;;
20776;SDS011;10548;47.504;8.248;2024-03-22T03:40:41;8.27;;;4.67;;
20776;SDS011;10548;47.504;8.248;2024-03-22T03:43:08;11.20;;;5.70;;
20776;SDS011;10548;47.504;8.248;2024-03-22T03:45:37;8.20;;;5.20;;
20776;SDS011;10548;47.504;8.248;2024-03-22T03:48:04;8.10;;;5.43;;
20776;SDS011;10548;47.504;8.248;2024-03-22T03:50:30;11.37;;;5.70;;
20776;SDS011;10548;47.504;8.248;2024-03-22T03:52:57;8.17;;;5.13;;
20776;SDS011;10548;47.504;8.248;2024-03-22T03:55:23;9.00;;;5.80;;
20776;SDS011;10548;47.504;8.248;2024-03-22T03:57:50;8.00;;;5.33;;
20776;SDS011;10548;47.504;8.248;2024-03-22T04:00:18;9.33;;;4.80;;
20776;SDS011;10548;47.504;8.248;2024-03-22T04:02:44;10.33;;;5.47;;
20776;SDS011;10548;47.504;8.248;2024-03-22T04:05:11;10.43;;;5.30;;
20776;SDS011;10548;47.504;8.248;2024-03-22T04:07:37;8.97;;;4.60;;
20776;SDS011;10548;47.504;8.248;2024-03-22T04:10:05;8.47;;;4.83;;
20776;SDS011;10548;47.504;8.248;2024-03-22T04:12:31;6.10;;;4.60;;
20776;SDS011;10548;47.504;8.248;2024-03-22T04:14:58;11.63;;;4.93;;
20776;SDS011;10548;47.504;8.248;2024-03-22T04:17:24;14.37;;;5.13;;
20776;SDS011;10548;47.504;8.248;2024-03-22T04:19:51;8.23;;;5.40;;
20776;SDS011;10548;47.504;8.248;2024-03-22T04:22:17;10.80;;;4.50;;
20776;SDS011;10548;47.504;8.248;2024-03-22T04:24:44;12.40;;;4.90;;
20776;SDS011;10548;47.504;8.248;2024-03-22T04:27:10;6.80;;;4.83;;
20776;SDS011;10548;47.504;8.248;2024-03-22T04:29:37;10.60;;;4.83;;
20776;SDS011;10548;47.504;8.248;2024-03-22T04:32:03;9.73;;;4.73;;
20776;SDS011;10548;47.504;8.248;2024-03-22T04:34:30;11.60;;;4.97;;
20776;SDS011;10548;47.504;8.248;2024-03-22T04:36:56;9.70;;;5.30;;
20776;SDS011;10548;47.504;8.248;2024-03-22T04:39:23;8.63;;;5.13;;
20776;SDS011;10548;47.504;8.248;2024-03-22T04:41:49;10.13;;;4.83;;
20776;SDS011;10548;47.504;8.248;2024-03-22T04:44:16;12.13;;;5.50;;
20776;SDS011;10548;47.504;8.248;2024-03-22T04:46:42;16.83;;;5.73;;
20776;SDS011;10548;47.504;8.248;2024-03-22T04:49:09;10.63;;;5.77;;
20776;SDS011;10548;47.504;8.248;2024-03-22T04:51:36;14.47;;;5.40;;
20776;SDS011;10548;47.504;8.248;2024-03-22T04:54:02;8.60;;;5.40;;
20776;SDS011;10548;47.504;8.248;2024-03-22T04:56:29;9.10;;;5.27;;
20776;SDS011;10548;47.504;8.248;2024-03-22T04:58:55;12.63;;;6.90;;
20776;SDS011;10548;47.504;8.248;2024-03-22T05:01:22;8.23;;;5.97;;
20776;SDS011;10548;47.504;8.248;2024-03-22T05:03:49;14.27;;;7.40;;
20776;SDS011;10548;47.504;8.248;2024-03-22T05:06:15;11.50;;;7.33;;
20776;SDS011;10548;47.504;8.248;2024-03-22T05:08:42;17.37;;;7.83;;
20776;SDS011;10548;47.504;8.248;2024-03-22T05:11:08;14.17;;;6.57;;
20776;SDS011;10548;47.504;8.248;2024-03-22T05:13:35;8.10;;;5.70;;
20776;SDS011;10548;47.504;8.248;2024-03-22T05:16:01;9.47;;;6.20;;
20776;SDS011;10548;47.504;8.248;2024-03-22T05:18:28;9.13;;;6.07;;
20776;SDS011;10548;47.504;8.248;2024-03-22T05:20:54;9.50;;;5.50;;
20776;SDS011;10548;47.504;8.248;2024-03-22T05:23:21;11.17;;;5.00;;
20776;SDS011;10548;47.504;8.248;2024-03-22T05:25:47;7.87;;;5.80;;
20776;SDS011;10548;47.504;8.248;2024-03-22T05:28:14;10.57;;;6.57;;
20776;SDS011;10548;47.504;8.248;2024-03-22T05:30:40;12.57;;;7.40;;
20776;SDS011;10548;47.504;8.248;2024-03-22T05:33:06;10.32;;;6.97;;
20776;SDS011;10548;47.504;8.248;2024-03-22T05:35:33;12.80;;;7.30;;
20776;SDS011;10548;47.504;8.248;2024-03-22T05:37:59;9.90;;;6.80;;
20776;SDS011;10548;47.504;8.248;2024-03-22T05:40:26;13.57;;;7.90;;
20776;SDS011;10548;47.504;8.248;2024-03-22T05:42:52;16.10;;;8.27;;
20776;SDS011;10548;47.504;8.248;2024-03-22T05:45:19;12.17;;;6.87;;
20776;SDS011;10548;47.504;8.248;2024-03-22T05:47:45;14.37;;;6.97;;
20776;SDS011;10548;47.504;8.248;2024-03-22T05:50:12;10.47;;;6.87;;
20776;SDS011;10548;47.504;8.248;2024-03-22T05:52:39;14.43;;;7.63;;
20776;SDS011;10548;47.504;8.248;2024-03-22T05:55:06;15.87;;;6.47;;
20776;SDS011;10548;47.504;8.248;2024-03-22T05:57:33;9.47;;;6.47;;
20776;SDS011;10548;47.504;8.248;2024-03-22T05:59:59;14.37;;;7.27;;
20776;SDS011;10548;47.504;8.248;2024-03-22T06:02:30;13.20;;;6.93;;
20776;SDS011;10548;47.504;8.248;2024-03-22T06:04:56;9.13;;;6.40;;
20776;SDS011;10548;47.504;8.248;2024-03-22T06:07:23;8.30;;;6.53;;
20776;SDS011;10548;47.504;8.248;2024-03-22T06:09:50;10.53;;;6.77;;
20776;SDS011;10548;47.504;8.248;2024-03-22T06:12:17;10.53;;;7.17;;
20776;SDS011;10548;47.504;8.248;2024-03-22T06:14:44;11.70;;;7.20;;
20776;SDS011;10548;47.504;8.248;2024-03-22T06:17:13;10.77;;;6.37;;
20776;SDS011;10548;47.504;8.248;2024-03-22T06:19:41;8.60;;;5.53;;
20776;SDS011;10548;47.504;8.248;2024-03-22T06:22:07;11.73;;;6.53;;
20776;SDS011;10548;47.504;8.248;2024-03-22T06:24:34;9.83;;;6.10;;
20776;SDS011;10548;47.504;8.248;2024-03-22T06:27:00;9.57;;;5.83;;
20776;SDS011;10548;47.504;8.248;2024-03-22T06:29:27;11.50;;;6.40;;
20776;SDS011;10548;47.504;8.248;2024-03-22T06:31:53;11.47;;;6.47;;
20776;SDS011;10548;47.504;8.248;2024-03-22T06:34:20;12.60;;;6.00;;
20776;SDS011;10548;47.504;8.248;2024-03-22T06:36:46;9.03;;;6.77;;
20776;SDS011;10548;47.504;8.248;2024-03-22T06:39:13;12.47;;;6.70;;
20776;SDS011;10548;47.504;8.248;2024-03-22T06:41:40;11.13;;;6.60;;
20776;SDS011;10548;47.504;8.248;2024-03-22T06:44:06;9.93;;;6.10;;
20776;SDS011;10548;47.504;8.248;2024-03-22T06:46:34;10.10;;;5.63;;
20776;SDS011;10548;47.504;8.248;2024-03-22T06:49:01;10.23;;;5.57;;
20776;SDS011;10548;47.504;8.248;2024-03-22T06:51:27;14.17;;;6.10;;
20776;SDS011;10548;47.504;8.248;2024-03-22T06:53:53;14.47;;;6.20;;
20776;SDS011;10548;47.504;8.248;2024-03-22T06:56:20;15.37;;;6.17;;
20776;SDS011;10548;47.504;8.248;2024-03-22T06:58:46;14.70;;;6.13;;
20776;SDS011;10548;47.504;8.248;2024-03-22T07:01:13;9.80;;;6.47;;
20776;SDS011;10548;47.504;8.248;2024-03-22T07:03:39;14.03;;;6.50;;
20776;SDS011;10548;47.504;8.248;2024-03-22T07:06:06;16.83;;;7.00;;
20776;SDS011;10548;47.504;8.248;2024-03-22T07:08:35;11.57;;;6.03;;
20776;SDS011;10548;47.504;8.248;2024-03-22T07:11:04;10.43;;;6.13;;
20776;SDS011;10548;47.504;8.248;2024-03-22T07:13:31;12.80;;;6.10;;
20776;SDS011;10548;47.504;8.248;2024-03-22T07:15:58;9.30;;;6.53;;
20776;SDS011;10548;47.504;8.248;2024-03-22T07:18:24;10.93;;;7.30;;
20776;SDS011;10548;47.504;8.248;2024-03-22T07:20:51;10.60;;;6.17;;
20776;SDS011;10548;47.504;8.248;2024-03-22T07:23:18;16.67;;;7.50;;
20776;SDS011;10548;47.504;8.248;2024-03-22T07:25:44;17.33;;;7.10;;
20776;SDS011;10548;47.504;8.248;2024-03-22T07:28:14;15.33;;;6.87;;
20776;SDS011;10548;47.504;8.248;2024-03-22T07:30:41;18.77;;;7.37;;
20776;SDS011;10548;47.504;8.248;2024-03-22T07:33:10;16.30;;;7.63;;
20776;SDS011;10548;47.504;8.248;2024-03-22T07:35:42;13.60;;;6.80;;
20776;SDS011;10548;47.504;8.248;2024-03-22T07:38:08;14.73;;;7.33;;
20776;SDS011;10548;47.504;8.248;2024-03-22T07:40:34;11.90;;;7.50;;
20776;SDS011;10548;47.504;8.248;2024-03-22T07:43:01;21.87;;;8.67;;
20776;SDS011;10548;47.504;8.248;2024-03-22T07:45:34;17.60;;;7.57;;
20776;SDS011;10548;47.504;8.248;2024-03-22T07:48:01;14.70;;;8.07;;
20776;SDS011;10548;47.504;8.248;2024-03-22T07:50:27;13.00;;;6.80;;
20776;SDS011;10548;47.504;8.248;2024-03-22T07:52:54;24.60;;;6.90;;
20776;SDS011;10548;47.504;8.248;2024-03-22T07:55:20;12.47;;;6.60;;
20776;SDS011;10548;47.504;8.248;2024-03-22T07:57:46;13.27;;;6.53;;
20776;SDS011;10548;47.504;8.248;2024-03-22T08:00:13;12.83;;;6.53;;
20776;SDS011;10548;47.504;8.248;2024-03-22T08:02:41;14.03;;;6.80;;
20776;SDS011;10548;47.504;8.248;2024-03-22T08:05:07;11.30;;;6.77;;
20776;SDS011;10548;47.504;8.248;2024-03-22T08:07:34;11.13;;;6.60;;
20776;SDS011;10548;47.504;8.248;2024-03-22T08:10:00;11.73;;;5.47;;
20776;SDS011;10548;47.504;8.248;2024-03-22T08:12:28;12.87;;;5.90;;
20776;SDS011;10548;47.504;8.248;2024-03-22T08:14:54;14.33;;;5.70;;
20776;SDS011;10548;47.504;8.248;2024-03-22T08:17:21;11.43;;;6.70;;
20776;SDS011;10548;47.504;8.248;2024-03-22T08:19:47;14.50;;;6.67;;
20776;SDS011;10548;47.504;8.248;2024-03-22T08:22:14;7.77;;;5.00;;
20776;SDS011;10548;47.504;8.248;2024-03-22T08:24:40;9.73;;;4.63;;
20776;SDS011;10548;47.504;8.248;2024-03-22T08:27:07;10.07;;;4.30;;
20776;SDS011;10548;47.504;8.248;2024-03-22T08:29:33;8.33;;;4.83;;
20776;SDS011;10548;47.504;8.248;2024-03-22T08:32:00;11.50;;;4.43;;
20776;SDS011;10548;47.504;8.248;2024-03-22T08:34:32;6.73;;;3.87;;
20776;SDS011;10548;47.504;8.248;2024-03-22T08:36:59;9.30;;;4.30;;
20776;SDS011;10548;47.504;8.248;2024-03-22T08:39:28;8.10;;;4.23;;
20776;SDS011;10548;47.504;8.248;2024-03-22T08:41:55;7.77;;;4.40;;
20776;SDS011;10548;47.504;8.248;2024-03-22T08:44:21;8.87;;;3.87;;
20776;SDS011;10548;47.504;8.248;2024-03-22T08:46:48;5.97;;;3.90;;
20776;SDS011;10548;47.504;8.248;2024-03-22T08:49:15;10.53;;;4.10;;
20776;SDS011;10548;47.504;8.248;2024-03-22T08:51:44;10.27;;;4.03;;
20776;SDS011;10548;47.504;8.248;2024-03-22T08:54:11;9.33;;;4.03;;
20776;SDS011;10548;47.504;8.248;2024-03-22T08:56:38;12.13;;;3.50;;
20776;SDS011;10548;47.504;8.248;2024-03-22T08:59:05;13.60;;;4.30;;
20776;SDS011;10548;47.504;8.248;2024-03-22T09:01:31;9.07;;;3.67;;
20776;SDS011;10548;47.504;8.248;2024-03-22T09:03:58;8.57;;;4.10;;
20776;SDS011;10548;47.504;8.248;2024-03-22T09:06:24;6.13;;;3.27;;
20776;SDS011;10548;47.504;8.248;2024-03-22T09:08:50;5.33;;;3.83;;
20776;SDS011;10548;47.504;8.248;2024-03-22T09:11:17;5.47;;;3.50;;
20776;SDS011;10548;47.504;8.248;2024-03-22T09:13:43;6.43;;;3.80;;
20776;SDS011;10548;47.504;8.248;2024-03-22T09:16:15;9.93;;;3.60;;
20776;SDS011;10548;47.504;8.248;2024-03-22T09:18:41;7.67;;;3.23;;
20776;SDS011;10548;47.504;8.248;2024-03-22T09:21:08;6.73;;;3.63;;
20776;SDS011;10548;47.504;8.248;2024-03-22T09:23:36;5.70;;;3.13;;
20776;SDS011;10548;47.504;8.248;2024-03-22T09:26:04;11.77;;;3.03;;
20776;SDS011;10548;47.504;8.248;2024-03-22T09:28:31;6.37;;;3.50;;
20776;SDS011;10548;47.504;8.248;2024-03-22T09:30:57;6.07;;;3.57;;
20776;SDS011;10548;47.504;8.248;2024-03-22T09:33:24;5.63;;;3.13;;
20776;SDS011;10548;47.504;8.248;2024-03-22T09:35:50;7.67;;;3.70;;
20776;SDS011;10548;47.504;8.248;2024-03-22T09:38:17;10.97;;;3.57;;
20776;SDS011;10548;47.504;8.248;2024-03-22T09:40:43;7.53;;;3.30;;
20776;SDS011;10548;47.504;8.248;2024-03-22T09:43:10;8.10;;;3.50;;
20776;SDS011;10548;47.504;8.248;2024-03-22T09:45:40;6.67;;;3.13;;
20776;SDS011;10548;47.504;8.248;2024-03-22T09:48:08;10.23;;;3.50;;
20776;SDS011;10548;47.504;8.248;2024-03-22T09:50:34;5.93;;;3.23;;
20776;SDS011;10548;47.504;8.248;2024-03-22T09:53:01;10.67;;;3.20;;
20776;SDS011;10548;47.504;8.248;2024-03-22T09:55:29;7.47;;;3.37;;
20776;SDS011;10548;47.504;8.248;2024-03-22T09:57:56;7.57;;;2.93;;
20776;SDS011;10548;47.504;8.248;2024-03-22T10:00:23;8.33;;;3.57;;
20776;SDS011;10548;47.504;8.248;2024-03-22T10:02:51;4.93;;;2.77;;
20776;SDS011;10548;47.504;8.248;2024-03-22T10:05:19;14.43;;;3.10;;
20776;SDS011;10548;47.504;8.248;2024-03-22T10:07:45;5.37;;;3.00;;
20776;SDS011;10548;47.504;8.248;2024-03-22T10:10:12;7.17;;;3.07;;
20776;SDS011;10548;47.504;8.248;2024-03-22T10:12:39;5.97;;;3.17;;
20776;SDS011;10548;47.504;8.248;2024-03-22T10:15:06;7.83;;;3.00;;
20776;SDS011;10548;47.504;8.248;2024-03-22T10:17:40;4.80;;;2.90;;
20776;SDS011;10548;47.504;8.248;2024-03-22T10:20:06;6.33;;;2.67;;
20776;SDS011;10548;47.504;8.248;2024-03-22T10:22:48;8.40;;;3.00;;
20776;SDS011;10548;47.504;8.248;2024-03-22T10:25:15;9.87;;;2.77;;
20776;SDS011;10548;47.504;8.248;2024-03-22T10:27:41;7.70;;;2.50;;
20776;SDS011;10548;47.504;8.248;2024-03-22T10:30:08;9.60;;;2.87;;
20776;SDS011;10548;47.504;8.248;2024-03-22T10:32:35;5.30;;;3.30;;
20776;SDS011;10548;47.504;8.248;2024-03-22T10:35:05;5.53;;;2.60;;
20776;SDS011;10548;47.504;8.248;2024-03-22T10:37:32;6.47;;;2.40;;
20776;SDS011;10548;47.504;8.248;2024-03-22T10:40:03;8.60;;;2.77;;
20776;SDS011;10548;47.504;8.248;2024-03-22T10:42:37;5.80;;;2.60;;
20776;SDS011;10548;47.504;8.248;2024-03-22T10:45:04;8.23;;;2.43;;
20776;SDS011;10548;47.504;8.248;2024-03-22T10:47:31;10.20;;;2.43;;
20776;SDS011;10548;47.504;8.248;2024-03-22T10:52:54;3.27;;;1.73;;
20776;SDS011;10548;47.504;8.248;2024-03-22T10:55:24;2.30;;;1.60;;
20776;SDS011;10548;47.504;8.248;2024-03-22T10:57:54;7.40;;;2.70;;
20776;SDS011;10548;47.504;8.248;2024-03-22T11:00:27;6.73;;;1.90;;
20776;SDS011;10548;47.504;8.248;2024-03-22T11:02:54;3.50;;;1.90;;
20776;SDS011;10548;47.504;8.248;2024-03-22T11:05:20;10.07;;;2.13;;
20776;SDS011;10548;47.504;8.248;2024-03-22T11:07:47;6.50;;;2.20;;
20776;SDS011;10548;47.504;8.248;2024-03-22T11:10:14;5.27;;;2.60;;
20776;SDS011;10548;47.504;8.248;2024-03-22T11:12:41;4.33;;;1.80;;
20776;SDS011;10548;47.504;8.248;2024-03-22T11:15:10;6.13;;;2.33;;
20776;SDS011;10548;47.504;8.248;2024-03-22T11:17:38;3.97;;;1.93;;
20776;SDS011;10548;47.504;8.248;2024-03-22T11:20:05;4.30;;;1.83;;
20776;SDS011;10548;47.504;8.248;2024-03-22T11:22:31;3.33;;;1.50;;
20776;SDS011;10548;47.504;8.248;2024-03-22T11:24:58;3.77;;;1.30;;
20776;SDS011;10548;47.504;8.248;2024-03-22T11:27:26;3.93;;;1.73;;
20776;SDS011;10548;47.504;8.248;2024-03-22T11:29:53;6.73;;;2.00;;
20776;SDS011;10548;47.504;8.248;2024-03-22T11:32:21;5.30;;;1.57;;
20776;SDS011;10548;47.504;8.248;2024-03-22T11:34:48;9.80;;;1.97;;
20776;SDS011;10548;47.504;8.248;2024-03-22T11:37:15;2.60;;;1.87;;
20776;SDS011;10548;47.504;8.248;2024-03-22T11:39:41;4.87;;;1.63;;
20776;SDS011;10548;47.504;8.248;2024-03-22T11:42:08;4.37;;;1.70;;
20776;SDS011;10548;47.504;8.248;2024-03-22T11:44:36;5.17;;;1.57;;
20776;SDS011;10548;47.504;8.248;2024-03-22T11:47:04;2.80;;;1.70;;
20776;SDS011;10548;47.504;8.248;2024-03-22T11:49:30;3.47;;;2.00;;
20776;SDS011;10548;47.504;8.248;2024-03-22T11:51:57;7.30;;;1.70;;
20776;SDS011;10548;47.504;8.248;2024-03-22T11:54:23;3.93;;;1.70;;
20776;SDS011;10548;47.504;8.248;2024-03-22T11:56:51;3.00;;;1.60;;
20776;SDS011;10548;47.504;8.248;2024-03-22T11:59:20;3.47;;;1.50;;
20776;SDS011;10548;47.504;8.248;2024-03-22T12:01:47;2.20;;;1.37;;
20776;SDS011;10548;47.504;8.248;2024-03-22T12:04:13;3.23;;;1.40;;
20776;SDS011;10548;47.504;8.248;2024-03-22T12:06:44;3.87;;;1.60;;
20776;SDS011;10548;47.504;8.248;2024-03-22T12:09:11;3.67;;;1.30;;
20776;SDS011;10548;47.504;8.248;2024-03-22T12:11:39;7.23;;;1.70;;
20776;SDS011;10548;47.504;8.248;2024-03-22T12:14:06;3.87;;;1.30;;
20776;SDS011;10548;47.504;8.248;2024-03-22T12:16:32;3.20;;;1.20;;
20776;SDS011;10548;47.504;8.248;2024-03-22T12:18:59;2.40;;;1.40;;
20776;SDS011;10548;47.504;8.248;2024-03-22T12:21:25;6.13;;;1.63;;
20776;SDS011;10548;47.504;8.248;2024-03-22T12:23:52;1.97;;;1.20;;
20776;SDS011;10548;47.504;8.248;2024-03-22T12:26:20;3.77;;;1.43;;
20776;SDS011;10548;47.504;8.248;2024-03-22T12:28:47;2.83;;;1.40;;
20776;SDS011;10548;47.504;8.248;2024-03-22T12:31:16;3.33;;;1.57;;
20776;SDS011;10548;47.504;8.248;2024-03-22T12:33:44;5.10;;;1.43;;
20776;SDS011;10548;47.504;8.248;2024-03-22T12:36:10;5.00;;;1.80;;
20776;SDS011;10548;47.504;8.248;2024-03-22T12:38:37;3.00;;;1.50;;
20776;SDS011;10548;47.504;8.248;2024-03-22T12:41:03;6.20;;;1.50;;
20776;SDS011;10548;47.504;8.248;2024-03-22T12:43:31;3.87;;;1.47;;
20776;SDS011;10548;47.504;8.248;2024-03-22T12:45:57;4.97;;;1.47;;
20776;SDS011;10548;47.504;8.248;2024-03-22T12:48:24;2.07;;;1.10;;
20776;SDS011;10548;47.504;8.248;2024-03-22T12:50:51;3.93;;;1.90;;
20776;SDS011;10548;47.504;8.248;2024-03-22T12:53:18;6.07;;;1.83;;
20776;SDS011;10548;47.504;8.248;2024-03-22T12:55:45;4.20;;;1.47;;
20776;SDS011;10548;47.504;8.248;2024-03-22T12:58:14;2.30;;;1.60;;
20776;SDS011;10548;47.504;8.248;2024-03-22T13:00:40;3.00;;;1.37;;
20776;SDS011;10548;47.504;8.248;2024-03-22T13:03:07;5.17;;;1.87;;
20776;SDS011;10548;47.504;8.248;2024-03-22T13:05:36;3.47;;;1.43;;
20776;SDS011;10548;47.504;8.248;2024-03-22T13:08:02;3.20;;;1.27;;
20776;SDS011;10548;47.504;8.248;2024-03-22T13:10:29;4.53;;;1.50;;
20776;SDS011;10548;47.504;8.248;2024-03-22T13:12:55;2.20;;;1.40;;
20776;SDS011;10548;47.504;8.248;2024-03-22T13:15:23;2.37;;;1.20;;
20776;SDS011;10548;47.504;8.248;2024-03-22T13:17:49;1.37;;;1.00;;
20776;SDS011;10548;47.504;8.248;2024-03-22T13:20:16;2.70;;;1.30;;
20776;SDS011;10548;47.504;8.248;2024-03-22T13:22:43;7.20;;;1.67;;
20776;SDS011;10548;47.504;8.248;2024-03-22T13:25:10;2.97;;;1.30;;
20776;SDS011;10548;47.504;8.248;2024-03-22T13:27:37;4.77;;;1.30;;
20776;SDS011;10548;47.504;8.248;2024-03-22T13:30:07;3.50;;;1.33;;
20776;SDS011;10548;47.504;8.248;2024-03-22T13:32:38;3.37;;;1.40;;
20776;SDS011;10548;47.504;8.248;2024-03-22T13:35:05;2.80;;;1.30;;
20776;SDS011;10548;47.504;8.248;2024-03-22T13:37:31;6.07;;;1.20;;
20776;SDS011;10548;47.504;8.248;2024-03-22T13:39:58;2.10;;;1.33;;
20776;SDS011;10548;47.504;8.248;2024-03-22T13:42:25;5.90;;;1.27;;
20776;SDS011;10548;47.504;8.248;2024-03-22T13:44:52;6.37;;;1.27;;
20776;SDS011;10548;47.504;8.248;2024-03-22T13:47:18;5.13;;;1.40;;
20776;SDS011;10548;47.504;8.248;2024-03-22T13:49:45;6.47;;;1.40;;
20776;SDS011;10548;47.504;8.248;2024-03-22T13:52:11;3.20;;;1.43;;
20776;SDS011;10548;47.504;8.248;2024-03-22T13:54:38;3.93;;;1.40;;
20776;SDS011;10548;47.504;8.248;2024-03-22T13:57:05;4.10;;;1.60;;
20776;SDS011;10548;47.504;8.248;2024-03-22T13:59:32;3.43;;;1.10;;
20776;SDS011;10548;47.504;8.248;2024-03-22T14:01:59;4.77;;;1.73;;
20776;SDS011;10548;47.504;8.248;2024-03-22T14:04:25;2.07;;;1.20;;
20776;SDS011;10548;47.504;8.248;2024-03-22T14:06:52;4.03;;;1.23;;
20776;SDS011;10548;47.504;8.248;2024-03-22T14:09:19;2.77;;;1.23;;
20776;SDS011;10548;47.504;8.248;2024-03-22T14:11:46;4.70;;;1.40;;
20776;SDS011;10548;47.504;8.248;2024-03-22T14:14:14;3.23;;;1.40;;
20776;SDS011;10548;47.504;8.248;2024-03-22T14:16:41;4.27;;;1.53;;
20776;SDS011;10548;47.504;8.248;2024-03-22T14:19:07;2.57;;;1.23;;
20776;SDS011;10548;47.504;8.248;2024-03-22T14:21:34;2.43;;;1.47;;
20776;SDS011;10548;47.504;8.248;2024-03-22T14:24:01;2.83;;;1.33;;
20776;SDS011;10548;47.504;8.248;2024-03-22T14:26:28;2.10;;;1.33;;
20776;SDS011;10548;47.504;8.248;2024-03-22T14:28:55;5.90;;;1.33;;
20776;SDS011;10548;47.504;8.248;2024-03-22T14:31:21;3.33;;;1.63;;
20776;SDS011;10548;47.504;8.248;2024-03-22T14:33:47;6.70;;;2.20;;
20776;SDS011;10548;47.504;8.248;2024-03-22T14:36:14;6.63;;;1.37;;
20776;SDS011;10548;47.504;8.248;2024-03-22T14:38:41;5.33;;;3.07;;
20776;SDS011;10548;47.504;8.248;2024-03-22T14:41:07;3.07;;;1.60;;
20776;SDS011;10548;47.504;8.248;2024-03-22T14:43:34;4.87;;;1.73;;